sensor_id;sensor_type;location;lat;lon;timestamp;temperature;humidity
68251;DHT22;55066;51.560;4.642;2023-04-12T00:01:01;8.40;99.99
68251;DHT22;55066;51.560;4.642;2023-04-12T00:03:27;8.42;99.99
68251;DHT22;55066;51.560;4.642;2023-04-12T00:05:52;8.49;99.99
68251;DHT22;55066;51.560;4.642;2023-04-12T00:08:25;8.59;99.99
68251;DHT22;55066;51.560;4.642;2023-04-12T00:10:58;8.58;99.99
68251;DHT22;55066;51.560;4.642;2023-04-12T00:13:24;8.53;99.99
68251;DHT22;55066;51.560;4.642;2023-04-12T00:15:50;8.55;99.99
68251;DHT22;55066;51.560;4.642;2023-04-12T00:18:16;8.48;99.99
68251;DHT22;55066;51.560;4.642;2023-04-12T00:20:42;8.70;99.99
68251;DHT22;55066;51.560;4.642;2023-04-12T00:23:08;8.55;99.99
68251;DHT22;55066;51.560;4.642;2023-04-12T00:25:37;8.48;99.99
68251;DHT22;55066;51.560;4.642;2023-04-12T00:28:04;8.38;99.99
68251;DHT22;55066;51.560;4.642;2023-04-12T00:30:30;8.45;99.99
68251;DHT22;55066;51.560;4.642;2023-04-12T00:32:57;8.55;99.99
68251;DHT22;55066;51.560;4.642;2023-04-12T00:35:24;8.37;99.99
68251;DHT22;55066;51.560;4.642;2023-04-12T00:37:50;8.37;99.99
68251;DHT22;55066;51.560;4.642;2023-04-12T00:40:15;8.46;99.99
68251;DHT22;55066;51.560;4.642;2023-04-12T00:42:41;8.38;99.99
68251;DHT22;55066;51.560;4.642;2023-04-12T00:45:07;8.42;99.99
68251;DHT22;55066;51.560;4.642;2023-04-12T00:47:36;8.38;99.99
68251;DHT22;55066;51.560;4.642;2023-04-12T00:50:03;8.49;99.99
68251;DHT22;55066;51.560;4.642;2023-04-12T00:52:29;8.40;99.99
68251;DHT22;55066;51.560;4.642;2023-04-12T00:55:05;8.45;99.99
68251;DHT22;55066;51.560;4.642;2023-04-12T00:57:37;8.24;99.99
68251;DHT22;55066;51.560;4.642;2023-04-12T01:00:05;8.24;99.99
68251;DHT22;55066;51.560;4.642;2023-04-12T01:02:32;8.23;99.99
68251;DHT22;55066;51.560;4.642;2023-04-12T01:04:58;8.20;99.99
68251;DHT22;55066;51.560;4.642;2023-04-12T01:10:17;8.15;99.99
68251;DHT22;55066;51.560;4.642;2023-04-12T01:12:56;8.31;99.99
68251;DHT22;55066;51.560;4.642;2023-04-12T01:15:28;8.30;99.99
68251;DHT22;55066;51.560;4.642;2023-04-12T01:18:04;8.27;99.99
68251;DHT22;55066;51.560;4.642;2023-04-12T01:20:35;8.40;99.99
68251;DHT22;55066;51.560;4.642;2023-04-12T01:26:05;8.31;99.99
68251;DHT22;55066;51.560;4.642;2023-04-12T01:28:36;8.18;99.99
68251;DHT22;55066;51.560;4.642;2023-04-12T01:31:02;8.20;99.99
68251;DHT22;55066;51.560;4.642;2023-04-12T01:33:29;8.38;99.99
68251;DHT22;55066;51.560;4.642;2023-04-12T01:36:08;8.40;99.99
68251;DHT22;55066;51.560;4.642;2023-04-12T01:38:35;8.73;99.99
68251;DHT22;55066;51.560;4.642;2023-04-12T01:41:01;8.79;99.99
68251;DHT22;55066;51.560;4.642;2023-04-12T01:43:26;8.45;99.99
68251;DHT22;55066;51.560;4.642;2023-04-12T01:45:54;8.25;99.99
68251;DHT22;55066;51.560;4.642;2023-04-12T01:48:19;8.35;99.99
68251;DHT22;55066;51.560;4.642;2023-04-12T01:51:05;8.15;99.99
68251;DHT22;55066;51.560;4.642;2023-04-12T01:53:47;8.35;99.99
68251;DHT22;55066;51.560;4.642;2023-04-12T01:56:16;8.91;99.99
68251;DHT22;55066;51.560;4.642;2023-04-12T01:58:43;8.45;99.99
68251;DHT22;55066;51.560;4.642;2023-04-12T02:01:12;8.34;99.99
68251;DHT22;55066;51.560;4.642;2023-04-12T02:03:43;8.24;99.99
68251;DHT22;55066;51.560;4.642;2023-04-12T02:06:10;8.44;99.99
68251;DHT22;55066;51.560;4.642;2023-04-12T02:08:36;8.31;99.99
68251;DHT22;55066;51.560;4.642;2023-04-12T02:11:09;8.34;99.99
68251;DHT22;55066;51.560;4.642;2023-04-12T02:13:34;8.35;99.99
68251;DHT22;55066;51.560;4.642;2023-04-12T02:16:01;8.42;99.99
68251;DHT22;55066;51.560;4.642;2023-04-12T02:18:27;8.42;99.99
68251;DHT22;55066;51.560;4.642;2023-04-12T02:20:55;8.24;99.99
68251;DHT22;55066;51.560;4.642;2023-04-12T02:23:20;8.28;99.99
68251;DHT22;55066;51.560;4.642;2023-04-12T02:25:45;8.20;99.99
68251;DHT22;55066;51.560;4.642;2023-04-12T02:28:12;8.32;99.99
68251;DHT22;55066;51.560;4.642;2023-04-12T02:30:39;8.35;99.99
68251;DHT22;55066;51.560;4.642;2023-04-12T02:33:09;8.37;99.99
68251;DHT22;55066;51.560;4.642;2023-04-12T02:35:36;8.13;99.99
68251;DHT22;55066;51.560;4.642;2023-04-12T02:38:06;8.11;99.99
68251;DHT22;55066;51.560;4.642;2023-04-12T02:40:37;8.21;99.99
68251;DHT22;55066;51.560;4.642;2023-04-12T02:43:07;8.15;99.99
68251;DHT22;55066;51.560;4.642;2023-04-12T02:45:33;8.17;99.99
68251;DHT22;55066;51.560;4.642;2023-04-12T02:47:58;8.20;99.99
68251;DHT22;55066;51.560;4.642;2023-04-12T02:50:28;8.00;99.99
68251;DHT22;55066;51.560;4.642;2023-04-12T02:53:01;8.17;99.99
68251;DHT22;55066;51.560;4.642;2023-04-12T02:55:26;8.18;99.99
68251;DHT22;55066;51.560;4.642;2023-04-12T02:57:52;8.13;99.99
68251;DHT22;55066;51.560;4.642;2023-04-12T03:00:17;8.13;99.99
68251;DHT22;55066;51.560;4.642;2023-04-12T03:02:50;8.15;99.99
68251;DHT22;55066;51.560;4.642;2023-04-12T03:05:22;8.01;99.99
68251;DHT22;55066;51.560;4.642;2023-04-12T03:07:49;8.10;99.99
68251;DHT22;55066;51.560;4.642;2023-04-12T03:10:19;8.05;99.99
68251;DHT22;55066;51.560;4.642;2023-04-12T03:12:53;7.97;99.99
68251;DHT22;55066;51.560;4.642;2023-04-12T03:15:19;7.98;99.99
68251;DHT22;55066;51.560;4.642;2023-04-12T03:17:49;8.01;99.99
68251;DHT22;55066;51.560;4.642;2023-04-12T03:20:16;8.08;99.99
68251;DHT22;55066;51.560;4.642;2023-04-12T03:22:51;8.10;99.99
68251;DHT22;55066;51.560;4.642;2023-04-12T03:25:16;8.08;99.99
68251;DHT22;55066;51.560;4.642;2023-04-12T03:27:52;8.01;99.99
68251;DHT22;55066;51.560;4.642;2023-04-12T03:30:20;8.03;99.99
68251;DHT22;55066;51.560;4.642;2023-04-12T03:32:46;8.04;99.99
68251;DHT22;55066;51.560;4.642;2023-04-12T03:35:12;8.07;99.99
68251;DHT22;55066;51.560;4.642;2023-04-12T03:37:42;8.04;99.99
68251;DHT22;55066;51.560;4.642;2023-04-12T03:40:09;8.08;99.99
68251;DHT22;55066;51.560;4.642;2023-04-12T03:42:35;8.08;99.99
68251;DHT22;55066;51.560;4.642;2023-04-12T03:45:09;8.14;99.99
68251;DHT22;55066;51.560;4.642;2023-04-12T03:47:36;8.14;99.99
68251;DHT22;55066;51.560;4.642;2023-04-12T03:50:04;8.08;99.99
68251;DHT22;55066;51.560;4.642;2023-04-12T03:52:32;8.20;99.99
68251;DHT22;55066;51.560;4.642;2023-04-12T03:54:59;8.13;99.99
68251;DHT22;55066;51.560;4.642;2023-04-12T03:57:26;8.23;99.99
68251;DHT22;55066;51.560;4.642;2023-04-12T03:59:51;8.11;99.99
68251;DHT22;55066;51.560;4.642;2023-04-12T04:02:22;8.05;99.99
68251;DHT22;55066;51.560;4.642;2023-04-12T04:04:50;8.13;99.99
68251;DHT22;55066;51.560;4.642;2023-04-12T04:07:24;8.25;99.99
68251;DHT22;55066;51.560;4.642;2023-04-12T04:09:53;8.13;99.99
68251;DHT22;55066;51.560;4.642;2023-04-12T04:12:19;8.08;99.99
68251;DHT22;55066;51.560;4.642;2023-04-12T04:14:48;8.07;99.99
68251;DHT22;55066;51.560;4.642;2023-04-12T04:17:24;8.13;99.99
68251;DHT22;55066;51.560;4.642;2023-04-12T04:19:49;8.11;99.99
68251;DHT22;55066;51.560;4.642;2023-04-12T04:22:16;8.08;99.99
68251;DHT22;55066;51.560;4.642;2023-04-12T04:24:43;8.14;99.99
68251;DHT22;55066;51.560;4.642;2023-04-12T04:27:09;8.17;99.99
68251;DHT22;55066;51.560;4.642;2023-04-12T04:29:35;8.14;99.99
68251;DHT22;55066;51.560;4.642;2023-04-12T04:32:08;8.11;99.99
68251;DHT22;55066;51.560;4.642;2023-04-12T04:34:34;8.17;99.99
68251;DHT22;55066;51.560;4.642;2023-04-12T04:37:07;8.17;99.99
68251;DHT22;55066;51.560;4.642;2023-04-12T04:39:34;8.18;99.99
68251;DHT22;55066;51.560;4.642;2023-04-12T04:42:00;8.17;99.99
68251;DHT22;55066;51.560;4.642;2023-04-12T04:44:49;8.17;99.99
68251;DHT22;55066;51.560;4.642;2023-04-12T04:47:24;8.17;99.99
68251;DHT22;55066;51.560;4.642;2023-04-12T04:49:49;8.17;99.99
68251;DHT22;55066;51.560;4.642;2023-04-12T04:52:23;8.15;99.99
68251;DHT22;55066;51.560;4.642;2023-04-12T04:54:51;8.20;99.99
68251;DHT22;55066;51.560;4.642;2023-04-12T04:57:23;8.20;99.99
68251;DHT22;55066;51.560;4.642;2023-04-12T04:59:48;8.23;99.99
68251;DHT22;55066;51.560;4.642;2023-04-12T05:02:15;8.23;99.99
68251;DHT22;55066;51.560;4.642;2023-04-12T05:04:42;8.25;99.99
68251;DHT22;55066;51.560;4.642;2023-04-12T05:07:10;8.32;99.99
68251;DHT22;55066;51.560;4.642;2023-04-12T05:09:38;8.28;99.99
68251;DHT22;55066;51.560;4.642;2023-04-12T05:12:04;8.34;99.99
68251;DHT22;55066;51.560;4.642;2023-04-12T05:14:30;8.46;99.99
68251;DHT22;55066;51.560;4.642;2023-04-12T05:16:55;8.48;99.99
68251;DHT22;55066;51.560;4.642;2023-04-12T05:19:21;8.48;99.99
68251;DHT22;55066;51.560;4.642;2023-04-12T05:21:47;8.53;99.99
68251;DHT22;55066;51.560;4.642;2023-04-12T05:24:12;8.52;99.99
68251;DHT22;55066;51.560;4.642;2023-04-12T05:26:39;8.46;99.99
68251;DHT22;55066;51.560;4.642;2023-04-12T05:29:10;8.41;99.99
68251;DHT22;55066;51.560;4.642;2023-04-12T05:31:39;8.51;99.99
68251;DHT22;55066;51.560;4.642;2023-04-12T05:34:09;8.52;99.99
68251;DHT22;55066;51.560;4.642;2023-04-12T05:36:40;8.51;99.99
68251;DHT22;55066;51.560;4.642;2023-04-12T05:39:06;8.53;99.99
68251;DHT22;55066;51.560;4.642;2023-04-12T05:41:33;8.61;99.99
68251;DHT22;55066;51.560;4.642;2023-04-12T05:44:00;8.65;99.99
68251;DHT22;55066;51.560;4.642;2023-04-12T05:46:28;8.61;99.99
68251;DHT22;55066;51.560;4.642;2023-04-12T05:48:54;8.63;99.99
68251;DHT22;55066;51.560;4.642;2023-04-12T05:51:20;8.69;99.99
68251;DHT22;55066;51.560;4.642;2023-04-12T05:53:55;8.76;99.99
68251;DHT22;55066;51.560;4.642;2023-04-12T05:56:22;8.68;99.99
68251;DHT22;55066;51.560;4.642;2023-04-12T05:58:47;8.70;99.99
68251;DHT22;55066;51.560;4.642;2023-04-12T06:01:13;8.86;99.99
68251;DHT22;55066;51.560;4.642;2023-04-12T06:03:41;8.77;99.99
68251;DHT22;55066;51.560;4.642;2023-04-12T06:06:08;8.83;99.99
68251;DHT22;55066;51.560;4.642;2023-04-12T06:08:35;8.77;99.99
68251;DHT22;55066;51.560;4.642;2023-04-12T06:11:03;8.89;99.99
68251;DHT22;55066;51.560;4.642;2023-04-12T06:13:28;8.81;99.99
68251;DHT22;55066;51.560;4.642;2023-04-12T06:15:55;8.89;99.99
68251;DHT22;55066;51.560;4.642;2023-04-12T06:18:22;8.90;99.99
68251;DHT22;55066;51.560;4.642;2023-04-12T06:20:47;8.81;99.99
68251;DHT22;55066;51.560;4.642;2023-04-12T06:23:13;8.75;99.99
68251;DHT22;55066;51.560;4.642;2023-04-12T06:25:39;8.89;99.99
68251;DHT22;55066;51.560;4.642;2023-04-12T06:28:04;8.84;99.99
68251;DHT22;55066;51.560;4.642;2023-04-12T06:30:34;8.83;99.99
68251;DHT22;55066;51.560;4.642;2023-04-12T06:33:00;8.87;99.99
68251;DHT22;55066;51.560;4.642;2023-04-12T06:35:25;8.90;99.99
68251;DHT22;55066;51.560;4.642;2023-04-12T06:37:50;8.96;99.99
68251;DHT22;55066;51.560;4.642;2023-04-12T06:40:16;8.93;99.99
68251;DHT22;55066;51.560;4.642;2023-04-12T06:42:41;9.01;99.99
68251;DHT22;55066;51.560;4.642;2023-04-12T06:45:08;9.06;99.99
68251;DHT22;55066;51.560;4.642;2023-04-12T06:47:34;9.08;99.99
68251;DHT22;55066;51.560;4.642;2023-04-12T06:49:59;9.01;99.99
68251;DHT22;55066;51.560;4.642;2023-04-12T06:52:26;8.99;99.99
68251;DHT22;55066;51.560;4.642;2023-04-12T06:54:51;8.94;99.99
68251;DHT22;55066;51.560;4.642;2023-04-12T06:57:18;9.01;99.99
68251;DHT22;55066;51.560;4.642;2023-04-12T06:59:44;9.00;99.99
68251;DHT22;55066;51.560;4.642;2023-04-12T07:02:10;8.96;99.99
68251;DHT22;55066;51.560;4.642;2023-04-12T07:04:36;8.99;99.99
68251;DHT22;55066;51.560;4.642;2023-04-12T07:07:01;9.13;99.99
68251;DHT22;55066;51.560;4.642;2023-04-12T07:09:31;9.27;99.99
68251;DHT22;55066;51.560;4.642;2023-04-12T07:11:57;9.41;99.99
68251;DHT22;55066;51.560;4.642;2023-04-12T07:14:22;9.46;99.99
68251;DHT22;55066;51.560;4.642;2023-04-12T07:16:48;9.45;99.99
68251;DHT22;55066;51.560;4.642;2023-04-12T07:19:14;9.45;99.99
68251;DHT22;55066;51.560;4.642;2023-04-12T07:21:40;9.55;99.99
68251;DHT22;55066;51.560;4.642;2023-04-12T07:24:07;9.54;99.99
68251;DHT22;55066;51.560;4.642;2023-04-12T07:26:32;9.61;99.99
68251;DHT22;55066;51.560;4.642;2023-04-12T07:28:58;9.69;99.99
68251;DHT22;55066;51.560;4.642;2023-04-12T07:31:23;9.94;99.99
68251;DHT22;55066;51.560;4.642;2023-04-12T07:33:49;10.20;99.99
68251;DHT22;55066;51.560;4.642;2023-04-12T07:36:15;10.44;99.99
68251;DHT22;55066;51.560;4.642;2023-04-12T07:38:41;10.45;99.99
68251;DHT22;55066;51.560;4.642;2023-04-12T07:41:06;10.38;99.99
68251;DHT22;55066;51.560;4.642;2023-04-12T07:43:32;10.34;99.99
68251;DHT22;55066;51.560;4.642;2023-04-12T07:45:59;10.25;99.99
68251;DHT22;55066;51.560;4.642;2023-04-12T07:48:28;10.38;99.99
68251;DHT22;55066;51.560;4.642;2023-04-12T07:50:54;10.51;99.99
68251;DHT22;55066;51.560;4.642;2023-04-12T07:53:24;10.54;99.99
68251;DHT22;55066;51.560;4.642;2023-04-12T07:55:51;10.62;99.99
68251;DHT22;55066;51.560;4.642;2023-04-12T07:58:17;10.61;99.99
68251;DHT22;55066;51.560;4.642;2023-04-12T08:00:46;10.41;99.99
68251;DHT22;55066;51.560;4.642;2023-04-12T08:03:12;10.44;99.99
68251;DHT22;55066;51.560;4.642;2023-04-12T08:05:39;10.42;99.99
68251;DHT22;55066;51.560;4.642;2023-04-12T08:08:05;10.28;99.99
68251;DHT22;55066;51.560;4.642;2023-04-12T08:10:30;10.33;99.99
68251;DHT22;55066;51.560;4.642;2023-04-12T08:12:56;10.40;99.99
68251;DHT22;55066;51.560;4.642;2023-04-12T08:15:22;10.54;99.99
68251;DHT22;55066;51.560;4.642;2023-04-12T08:17:48;10.95;99.99
68251;DHT22;55066;51.560;4.642;2023-04-12T08:20:13;11.09;99.49
68251;DHT22;55066;51.560;4.642;2023-04-12T08:22:43;11.17;99.99
68251;DHT22;55066;51.560;4.642;2023-04-12T08:25:09;11.34;99.99
68251;DHT22;55066;51.560;4.642;2023-04-12T08:27:34;11.40;99.99
68251;DHT22;55066;51.560;4.642;2023-04-12T08:30:00;11.31;99.99
68251;DHT22;55066;51.560;4.642;2023-04-12T08:32:25;11.27;99.99
68251;DHT22;55066;51.560;4.642;2023-04-12T08:34:51;11.38;99.70
68251;DHT22;55066;51.560;4.642;2023-04-12T08:37:16;11.27;98.44
68251;DHT22;55066;51.560;4.642;2023-04-12T08:39:42;11.28;99.99
68251;DHT22;55066;51.560;4.642;2023-04-12T08:42:09;11.47;99.99
68251;DHT22;55066;51.560;4.642;2023-04-12T08:44:38;11.57;96.68
68251;DHT22;55066;51.560;4.642;2023-04-12T08:47:06;11.38;98.87
68251;DHT22;55066;51.560;4.642;2023-04-12T08:49:32;11.45;98.57
68251;DHT22;55066;51.560;4.642;2023-04-12T08:52:06;11.23;97.10
68251;DHT22;55066;51.560;4.642;2023-04-12T08:54:33;11.23;97.66
68251;DHT22;55066;51.560;4.642;2023-04-12T08:57:00;11.23;97.50
68251;DHT22;55066;51.560;4.642;2023-04-12T08:59:28;11.17;97.20
68251;DHT22;55066;51.560;4.642;2023-04-12T09:01:54;11.23;97.14
68251;DHT22;55066;51.560;4.642;2023-04-12T09:04:21;11.22;96.77
68251;DHT22;55066;51.560;4.642;2023-04-12T09:06:46;11.19;97.00
68251;DHT22;55066;51.560;4.642;2023-04-12T09:09:11;11.23;96.62
68251;DHT22;55066;51.560;4.642;2023-04-12T09:11:38;11.41;96.17
68251;DHT22;55066;51.560;4.642;2023-04-12T09:14:19;11.69;96.56
68251;DHT22;55066;51.560;4.642;2023-04-12T09:16:46;11.68;92.93
68251;DHT22;55066;51.560;4.642;2023-04-12T09:19:12;11.72;93.53
68251;DHT22;55066;51.560;4.642;2023-04-12T09:21:54;11.67;93.27
68251;DHT22;55066;51.560;4.642;2023-04-12T09:24:19;11.71;92.57
68251;DHT22;55066;51.560;4.642;2023-04-12T09:26:52;11.71;93.04
68251;DHT22;55066;51.560;4.642;2023-04-12T09:29:25;11.79;91.18
68251;DHT22;55066;51.560;4.642;2023-04-12T09:32:03;11.86;92.19
68251;DHT22;55066;51.560;4.642;2023-04-12T09:34:29;11.62;92.50
68251;DHT22;55066;51.560;4.642;2023-04-12T09:36:55;11.89;92.01
68251;DHT22;55066;51.560;4.642;2023-04-12T09:39:32;12.34;88.94
68251;DHT22;55066;51.560;4.642;2023-04-12T09:42:09;12.53;91.23
68251;DHT22;55066;51.560;4.642;2023-04-12T09:44:35;12.53;90.55
68251;DHT22;55066;51.560;4.642;2023-04-12T09:47:02;12.71;89.25
68251;DHT22;55066;51.560;4.642;2023-04-12T09:49:44;13.13;88.30
68251;DHT22;55066;51.560;4.642;2023-04-12T09:52:11;13.32;84.57
68251;DHT22;55066;51.560;4.642;2023-04-12T09:54:41;13.32;85.60
68251;DHT22;55066;51.560;4.642;2023-04-12T09:57:08;13.46;82.50
68251;DHT22;55066;51.560;4.642;2023-04-12T09:59:37;13.68;82.34
68251;DHT22;55066;51.560;4.642;2023-04-12T10:02:22;13.86;81.89
68251;DHT22;55066;51.560;4.642;2023-04-12T10:04:53;13.91;83.23
68251;DHT22;55066;51.560;4.642;2023-04-12T10:07:19;13.29;81.63
68251;DHT22;55066;51.560;4.642;2023-04-12T10:09:45;13.26;82.80
68251;DHT22;55066;51.560;4.642;2023-04-12T10:12:10;13.02;82.20
68251;DHT22;55066;51.560;4.642;2023-04-12T10:14:36;13.46;84.55
68251;DHT22;55066;51.560;4.642;2023-04-12T10:17:03;13.56;85.53
68251;DHT22;55066;51.560;4.642;2023-04-12T10:19:30;13.81;81.06
68251;DHT22;55066;51.560;4.642;2023-04-12T10:21:56;13.91;80.91
68251;DHT22;55066;51.560;4.642;2023-04-12T10:24:23;14.13;80.24
68251;DHT22;55066;51.560;4.642;2023-04-12T10:26:51;14.33;83.61
68251;DHT22;55066;51.560;4.642;2023-04-12T10:29:27;14.02;81.30
68251;DHT22;55066;51.560;4.642;2023-04-12T10:31:54;14.11;79.88
68251;DHT22;55066;51.560;4.642;2023-04-12T10:34:29;14.12;80.97
68251;DHT22;55066;51.560;4.642;2023-04-12T10:36:58;14.59;77.19
68251;DHT22;55066;51.560;4.642;2023-04-12T10:39:40;14.71;76.74
68251;DHT22;55066;51.560;4.642;2023-04-12T10:42:16;14.78;76.16
68251;DHT22;55066;51.560;4.642;2023-04-12T10:44:43;14.47;76.55
68251;DHT22;55066;51.560;4.642;2023-04-12T10:47:08;14.85;82.07
68251;DHT22;55066;51.560;4.642;2023-04-12T10:49:35;14.74;76.69
68251;DHT22;55066;51.560;4.642;2023-04-12T10:54:34;14.12;75.53
68251;DHT22;55066;51.560;4.642;2023-04-12T10:57:00;14.55;79.38
68251;DHT22;55066;51.560;4.642;2023-04-12T10:59:54;14.46;75.90
68251;DHT22;55066;51.560;4.642;2023-04-12T11:02:21;14.64;75.12
68251;DHT22;55066;51.560;4.642;2023-04-12T11:07:52;14.74;80.53
68251;DHT22;55066;51.560;4.642;2023-04-12T11:10:37;14.74;75.34
68251;DHT22;55066;51.560;4.642;2023-04-12T11:13:05;14.94;76.93
68251;DHT22;55066;51.560;4.642;2023-04-12T11:15:31;15.01;78.12
68251;DHT22;55066;51.560;4.642;2023-04-12T11:17:58;14.78;79.14
68251;DHT22;55066;51.560;4.642;2023-04-12T11:20:25;14.85;77.42
68251;DHT22;55066;51.560;4.642;2023-04-12T11:22:55;14.63;76.29
68251;DHT22;55066;51.560;4.642;2023-04-12T11:25:23;13.67;82.28
68251;DHT22;55066;51.560;4.642;2023-04-12T11:27:49;13.12;83.94
68251;DHT22;55066;51.560;4.642;2023-04-12T11:30:19;13.26;88.71
68251;DHT22;55066;51.560;4.642;2023-04-12T11:32:45;13.09;84.50
68251;DHT22;55066;51.560;4.642;2023-04-12T11:35:13;13.73;86.03
68251;DHT22;55066;51.560;4.642;2023-04-12T11:37:40;13.46;84.37
68251;DHT22;55066;51.560;4.642;2023-04-12T11:40:07;14.15;85.22
68251;DHT22;55066;51.560;4.642;2023-04-12T11:42:33;14.01;84.51
68251;DHT22;55066;51.560;4.642;2023-04-12T11:44:59;14.41;85.22
68251;DHT22;55066;51.560;4.642;2023-04-12T11:47:25;14.26;81.59
68251;DHT22;55066;51.560;4.642;2023-04-12T11:49:55;14.01;81.44
68251;DHT22;55066;51.560;4.642;2023-04-12T11:52:27;14.04;83.15
68251;DHT22;55066;51.560;4.642;2023-04-12T11:54:53;14.56;85.43
68251;DHT22;55066;51.560;4.642;2023-04-12T11:57:23;13.92;85.04
68251;DHT22;55066;51.560;4.642;2023-04-12T11:59:49;14.05;82.51
68251;DHT22;55066;51.560;4.642;2023-04-12T12:02:15;13.78;85.75
68251;DHT22;55066;51.560;4.642;2023-04-12T12:04:45;12.98;84.21
68251;DHT22;55066;51.560;4.642;2023-04-12T12:07:12;12.13;89.31
68251;DHT22;55066;51.560;4.642;2023-04-12T12:09:38;12.32;90.21
68251;DHT22;55066;51.560;4.642;2023-04-12T12:12:05;11.90;90.15
68251;DHT22;55066;51.560;4.642;2023-04-12T12:14:33;12.30;92.65
68251;DHT22;55066;51.560;4.642;2023-04-12T12:17:02;12.36;86.81
68251;DHT22;55066;51.560;4.642;2023-04-12T12:19:36;12.87;92.19
68251;DHT22;55066;51.560;4.642;2023-04-12T12:22:16;13.05;90.64
68251;DHT22;55066;51.560;4.642;2023-04-12T12:24:51;13.48;91.56
68251;DHT22;55066;51.560;4.642;2023-04-12T12:27:21;13.36;90.49
68251;DHT22;55066;51.560;4.642;2023-04-12T12:29:52;13.03;88.88
68251;DHT22;55066;51.560;4.642;2023-04-12T12:32:18;13.48;88.95
68251;DHT22;55066;51.560;4.642;2023-04-12T12:34:54;13.02;88.99
68251;DHT22;55066;51.560;4.642;2023-04-12T12:37:27;12.54;90.02
68251;DHT22;55066;51.560;4.642;2023-04-12T12:40:10;11.99;89.61
68251;DHT22;55066;51.560;4.642;2023-04-12T12:45:13;12.77;87.23
68251;DHT22;55066;51.560;4.642;2023-04-12T12:47:58;13.16;86.07
68251;DHT22;55066;51.560;4.642;2023-04-12T12:50:25;13.86;85.07
68251;DHT22;55066;51.560;4.642;2023-04-12T12:52:52;14.15;83.22
68251;DHT22;55066;51.560;4.642;2023-04-12T12:55:17;13.81;83.85
68251;DHT22;55066;51.560;4.642;2023-04-12T12:57:45;13.78;82.08
68251;DHT22;55066;51.560;4.642;2023-04-12T13:00:15;14.09;83.59
68251;DHT22;55066;51.560;4.642;2023-04-12T13:02:44;14.43;82.23
68251;DHT22;55066;51.560;4.642;2023-04-12T13:05:10;15.36;81.89
68251;DHT22;55066;51.560;4.642;2023-04-12T13:07:36;14.99;81.59
68251;DHT22;55066;51.560;4.642;2023-04-12T13:10:02;15.11;84.19
68251;DHT22;55066;51.560;4.642;2023-04-12T13:12:28;15.05;82.52
68251;DHT22;55066;51.560;4.642;2023-04-12T13:14:53;14.78;79.11
68251;DHT22;55066;51.560;4.642;2023-04-12T13:17:19;15.38;82.64
68251;DHT22;55066;51.560;4.642;2023-04-12T13:19:45;15.22;79.57
68251;DHT22;55066;51.560;4.642;2023-04-12T13:22:11;15.23;80.50
68251;DHT22;55066;51.560;4.642;2023-04-12T13:24:37;14.63;80.24
68251;DHT22;55066;51.560;4.642;2023-04-12T13:27:02;14.85;81.91
68251;DHT22;55066;51.560;4.642;2023-04-12T13:29:28;14.37;80.44
68251;DHT22;55066;51.560;4.642;2023-04-12T13:31:53;14.39;83.73
68251;DHT22;55066;51.560;4.642;2023-04-12T13:34:18;14.00;83.33
68251;DHT22;55066;51.560;4.642;2023-04-12T13:36:48;13.64;84.94
68251;DHT22;55066;51.560;4.642;2023-04-12T13:39:13;11.64;89.20
68251;DHT22;55066;51.560;4.642;2023-04-12T13:41:38;11.93;95.35
68251;DHT22;55066;51.560;4.642;2023-04-12T13:44:16;11.02;95.30
68251;DHT22;55066;51.560;4.642;2023-04-12T13:46:41;11.47;97.51
68251;DHT22;55066;51.560;4.642;2023-04-12T13:49:09;11.72;95.66
68251;DHT22;55066;51.560;4.642;2023-04-12T13:51:35;11.61;95.46
68251;DHT22;55066;51.560;4.642;2023-04-12T13:54:01;11.14;95.50
68251;DHT22;55066;51.560;4.642;2023-04-12T13:56:29;12.13;96.15
68251;DHT22;55066;51.560;4.642;2023-04-12T13:58:55;12.19;95.75
68251;DHT22;55066;51.560;4.642;2023-04-12T14:01:21;12.00;94.87
68251;DHT22;55066;51.560;4.642;2023-04-12T14:03:47;12.36;93.57
68251;DHT22;55066;51.560;4.642;2023-04-12T14:06:13;12.75;91.70
68251;DHT22;55066;51.560;4.642;2023-04-12T14:08:38;12.74;92.66
68251;DHT22;55066;51.560;4.642;2023-04-12T14:11:04;13.22;90.55
68251;DHT22;55066;51.560;4.642;2023-04-12T14:13:30;12.69;91.52
68251;DHT22;55066;51.560;4.642;2023-04-12T14:15:57;11.89;93.75
68251;DHT22;55066;51.560;4.642;2023-04-12T14:18:22;12.32;92.41
68251;DHT22;55066;51.560;4.642;2023-04-12T14:20:50;12.24;93.13
68251;DHT22;55066;51.560;4.642;2023-04-12T14:23:20;12.16;93.45
68251;DHT22;55066;51.560;4.642;2023-04-12T14:25:51;11.98;93.57
68251;DHT22;55066;51.560;4.642;2023-04-12T14:28:17;12.13;93.00
68251;DHT22;55066;51.560;4.642;2023-04-12T14:30:46;12.37;90.71
68251;DHT22;55066;51.560;4.642;2023-04-12T14:33:13;12.38;92.19
68251;DHT22;55066;51.560;4.642;2023-04-12T14:35:38;12.43;91.90
68251;DHT22;55066;51.560;4.642;2023-04-12T14:38:03;12.05;91.56
68251;DHT22;55066;51.560;4.642;2023-04-12T14:40:30;12.03;93.37
68251;DHT22;55066;51.560;4.642;2023-04-12T14:42:59;11.98;92.23
68251;DHT22;55066;51.560;4.642;2023-04-12T14:45:25;11.81;87.38
68251;DHT22;55066;51.560;4.642;2023-04-12T14:47:52;12.33;89.34
68251;DHT22;55066;51.560;4.642;2023-04-12T14:50:18;12.55;88.48
68251;DHT22;55066;51.560;4.642;2023-04-12T14:52:43;12.60;86.41
68251;DHT22;55066;51.560;4.642;2023-04-12T14:55:09;13.18;82.71
68251;DHT22;55066;51.560;4.642;2023-04-12T14:57:37;13.35;81.41
68251;DHT22;55066;51.560;4.642;2023-04-12T15:00:07;13.20;81.79
68251;DHT22;55066;51.560;4.642;2023-04-12T15:02:38;13.19;80.20
68251;DHT22;55066;51.560;4.642;2023-04-12T15:05:04;13.29;79.67
68251;DHT22;55066;51.560;4.642;2023-04-12T15:07:33;13.37;82.92
68251;DHT22;55066;51.560;4.642;2023-04-12T15:09:59;13.61;81.38
68251;DHT22;55066;51.560;4.642;2023-04-12T15:12:25;14.23;82.60
68251;DHT22;55066;51.560;4.642;2023-04-12T15:14:52;13.09;81.00
68251;DHT22;55066;51.560;4.642;2023-04-12T15:17:18;12.78;75.88
68251;DHT22;55066;51.560;4.642;2023-04-12T15:19:44;13.56;80.94
68251;DHT22;55066;51.560;4.642;2023-04-12T15:22:10;14.59;78.63
68251;DHT22;55066;51.560;4.642;2023-04-12T15:24:35;14.09;76.02
68251;DHT22;55066;51.560;4.642;2023-04-12T15:27:00;14.88;76.26
68251;DHT22;55066;51.560;4.642;2023-04-12T15:29:27;14.94;76.56
68251;DHT22;55066;51.560;4.642;2023-04-12T15:31:52;15.23;73.76
68251;DHT22;55066;51.560;4.642;2023-04-12T15:34:20;15.25;76.69
68251;DHT22;55066;51.560;4.642;2023-04-12T15:36:47;15.21;76.14
68251;DHT22;55066;51.560;4.642;2023-04-12T15:39:13;14.88;73.87
68251;DHT22;55066;51.560;4.642;2023-04-12T15:41:39;14.71;75.02
68251;DHT22;55066;51.560;4.642;2023-04-12T15:44:07;14.84;74.12
68251;DHT22;55066;51.560;4.642;2023-04-12T15:46:34;14.98;77.18
68251;DHT22;55066;51.560;4.642;2023-04-12T15:49:00;14.70;74.31
68251;DHT22;55066;51.560;4.642;2023-04-12T15:51:26;14.80;74.42
68251;DHT22;55066;51.560;4.642;2023-04-12T15:53:52;14.98;76.45
68251;DHT22;55066;51.560;4.642;2023-04-12T15:56:19;14.74;69.46